Time;durP1;ratioP1;P1;durP2;ratioP2;P2;SDS_P1;SDS_P2;PMS_P1;PMS_P2;Temp;Humidity;BMP_temperature;BMP_pressure;BME280_temperature;BME280_humidity;BME280_pressure;Samples;Min_cycle;Max_cycle;Signal;HPM_P1;HPM_P2
2023/03/07 00:01:27;;;;;;;2.63;2.43;;;21.00;56.90;;;;;;4925053;29;20480;-96
2023/03/07 00:03:55;;;;;;;2.73;2.53;;;21.00;56.80;;;;;;4925375;29;20483;-96
2023/03/07 00:06:23;;;;;;;2.60;2.40;;;21.00;56.80;;;;;;4924124;29;20552;-96
2023/03/07 00:08:50;;;;;;;2.73;2.53;;;21.20;56.90;;;;;;4923990;29;20453;-96
2023/03/07 00:11:19;;;;;;;2.83;2.63;;;21.00;56.80;;;;;;4909697;29;20872;-96
2023/03/07 00:13:46;;;;;;;3.20;2.50;;;21.00;56.70;;;;;;4907882;29;20875;-96
2023/03/07 00:16:16;;;;;;;2.33;2.13;;;21.10;56.80;;;;;;4924780;29;20464;-96
2023/03/07 00:18:45;;;;;;;2.83;2.53;;;21.10;56.80;;;;;;4925371;29;20455;-96
2023/03/07 00:21:14;;;;;;;2.20;2.00;;;21.00;56.70;;;;;;4923808;29;20880;-96
2023/03/07 00:23:43;;;;;;;2.73;2.30;;;21.00;56.70;;;;;;4925410;29;20448;-96
2023/03/07 00:26:13;;;;;;;2.50;2.13;;;20.90;56.60;;;;;;4926493;29;20456;-95
2023/03/07 00:28:42;;;;;;;1.90;1.80;;;20.90;56.60;;;;;;4923640;29;20956;-96
2023/03/07 00:31:12;;;;;;;2.27;2.07;;;20.90;56.50;;;;;;4925065;29;20459;-96
2023/03/07 00:33:45;;;;;;;1.80;1.70;;;20.90;57.10;;;;;;4924743;29;20455;-96
2023/03/07 00:36:15;;;;;;;2.27;2.07;;;20.90;56.60;;;;;;4924603;29;20842;-96
2023/03/07 00:38:43;;;;;;;2.60;2.40;;;20.90;56.60;;;;;;4923735;29;20480;-96
2023/03/07 00:41:12;;;;;;;3.83;1.83;;;20.90;56.50;;;;;;4923984;29;20479;-96
2023/03/07 00:43:39;;;;;;;2.03;1.80;;;20.90;56.60;;;;;;4923043;29;20503;-96
2023/03/07 00:46:07;;;;;;;2.43;2.07;;;20.90;56.50;;;;;;4922441;29;20516;-96
2023/03/07 00:48:36;;;;;;;2.13;2.03;;;20.90;56.60;;;;;;4923131;29;20520;-96
2023/03/07 00:51:04;;;;;;;2.10;2.00;;;20.90;56.50;;;;;;4923488;29;20483;-95
2023/03/07 00:53:32;;;;;;;2.00;1.90;;;20.90;56.50;;;;;;4922497;29;20555;-96
2023/03/07 00:56:01;;;;;;;2.20;2.10;;;20.90;56.40;;;;;;4922317;29;20449;-96
2023/03/07 00:58:30;;;;;;;2.10;2.00;;;20.90;56.50;;;;;;4921233;29;20455;-96
2023/03/07 01:01:00;;;;;;;1.93;1.83;;;20.90;56.50;;;;;;4921025;29;20449;-96
2023/03/07 01:03:27;;;;;;;2.07;1.97;;;20.90;56.50;;;;;;4921829;29;20483;-96
2023/03/07 01:05:55;;;;;;;1.97;1.77;;;20.90;56.40;;;;;;4920957;29;20558;-96
2023/03/07 01:08:23;;;;;;;2.73;2.40;;;20.90;56.40;;;;;;4921716;29;21007;-96
2023/03/07 01:10:51;;;;;;;2.37;1.50;;;20.90;56.40;;;;;;4922573;29;20520;-96
2023/03/07 01:16:40;;;;;;;1.90;1.80;;;20.90;56.30;;;;;;4922725;29;20447;-96
2023/03/07 01:19:11;;;;;;;3.20;2.10;;;20.90;56.40;;;;;;4922544;29;20456;-96
2023/03/07 01:21:40;;;;;;;2.37;2.00;;;20.90;56.40;;;;;;4923528;29;20475;-96
2023/03/07 01:24:08;;;;;;;2.13;2.03;;;20.90;56.40;;;;;;4921344;29;20479;-96
2023/03/07 01:26:38;;;;;;;1.97;1.87;;;20.90;56.30;;;;;;4920576;29;20494;-96
2023/03/07 01:29:06;;;;;;;2.33;2.13;;;20.90;56.30;;;;;;4921592;29;20486;-96
2023/03/07 01:31:34;;;;;;;2.07;1.83;;;20.90;56.30;;;;;;4907082;29;20448;-96
2023/03/07 01:34:02;;;;;;;1.90;1.80;;;20.70;56.10;;;;;;4922414;29;20869;-96
2023/03/07 01:36:31;;;;;;;1.97;1.77;;;20.90;56.20;;;;;;4922651;29;20459;-96
2023/03/07 01:39:01;;;;;;;1.83;1.73;;;20.80;56.20;;;;;;4922404;29;20456;-96
2023/03/07 01:41:31;;;;;;;1.90;1.80;;;20.80;56.10;;;;;;4920979;29;20487;-96
2023/03/07 01:44:01;;;;;;;2.00;1.70;;;20.80;56.20;;;;;;4922646;29;20490;-96
2023/03/07 01:46:41;;;;;;;1.80;1.70;;;20.80;56.10;;;;;;4920216;29;20484;-96
2023/03/07 01:49:13;;;;;;;2.00;1.90;;;20.80;56.10;;;;;;4918421;29;20455;-96
2023/03/07 01:51:46;;;;;;;2.00;1.90;;;20.80;56.10;;;;;;4919555;29;20452;-96
2023/03/07 01:54:16;;;;;;;2.03;1.90;;;20.80;56.00;;;;;;4920218;29;20472;-95
2023/03/07 01:56:45;;;;;;;1.70;1.60;;;20.80;56.10;;;;;;4919273;29;20466;-96
2023/03/07 01:59:17;;;;;;;2.00;1.90;;;20.80;56.00;;;;;;4919634;29;20451;-96
2023/03/07 02:01:44;;;;;;;1.83;1.60;;;20.80;56.00;;;;;;4919299;29;20909;-96
2023/03/07 02:04:17;;;;;;;2.07;1.87;;;20.80;56.00;;;;;;4918985;29;20463;-96
2023/03/07 02:06:44;;;;;;;1.93;1.73;;;20.80;56.00;;;;;;4919537;29;20499;-96
2023/03/07 02:09:18;;;;;;;1.83;1.73;;;20.80;56.00;;;;;;4919173;29;20483;-95
2023/03/07 02:11:48;;;;;;;1.80;1.70;;;20.80;55.90;;;;;;4919465;29;20835;-96
2023/03/07 02:14:17;;;;;;;2.27;2.10;;;20.80;56.00;;;;;;4919518;29;20458;-95
2023/03/07 02:16:44;;;;;;;2.37;2.17;;;20.80;55.90;;;;;;4918901;29;21003;-96
2023/03/07 02:19:33;;;;;;;1.80;1.70;;;20.80;55.90;;;;;;4918409;29;20531;-96
2023/03/07 02:22:11;;;;;;;2.00;1.90;;;20.80;55.90;;;;;;4915104;29;20519;-96
2023/03/07 02:24:47;;;;;;;1.90;1.80;;;20.80;55.90;;;;;;4919192;29;20507;-96
2023/03/07 02:27:16;;;;;;;2.80;1.80;;;20.80;55.80;;;;;;4918722;29;20518;-96
2023/03/07 02:29:43;;;;;;;2.20;2.00;;;20.80;55.80;;;;;;4918883;29;20503;-96
2023/03/07 02:32:12;;;;;;;1.87;1.77;;;20.80;55.90;;;;;;4919047;29;20479;-96
2023/03/07 02:34:40;;;;;;;2.00;1.80;;;20.70;55.70;;;;;;4919670;29;20485;-96
2023/03/07 02:37:11;;;;;;;2.63;1.83;;;20.70;55.80;;;;;;4902287;29;20448;-96
2023/03/07 02:39:41;;;;;;;1.87;1.63;;;20.70;55.80;;;;;;4919132;29;20861;-96
2023/03/07 02:42:14;;;;;;;1.63;1.53;;;20.70;55.70;;;;;;4918277;29;20482;-95
2023/03/07 02:44:46;;;;;;;2.10;2.00;;;20.70;55.70;;;;;;4918644;29;20495;-96
2023/03/07 02:47:13;;;;;;;1.77;1.67;;;20.70;55.70;;;;;;4919810;29;20496;-96
2023/03/07 02:49:40;;;;;;;1.50;1.40;;;20.70;55.70;;;;;;4918775;29;20460;-96
2023/03/07 02:52:07;;;;;;;1.80;1.70;;;20.70;55.70;;;;;;4918865;29;20523;-96
2023/03/07 02:54:35;;;;;;;2.23;2.03;;;20.70;55.60;;;;;;4919015;29;20483;-96
2023/03/07 02:57:03;;;;;;;1.63;1.53;;;20.70;55.70;;;;;;4918810;29;20507;-96
2023/03/07 02:59:31;;;;;;;1.57;1.33;;;20.70;55.60;;;;;;4919095;29;20467;-96
2023/03/07 03:01:59;;;;;;;1.73;1.60;;;20.70;55.60;;;;;;4920377;29;20531;-96
2023/03/07 03:04:26;;;;;;;1.87;1.77;;;20.70;55.60;;;;;;4921471;29;20585;-96
2023/03/07 03:06:53;;;;;;;1.90;1.80;;;20.70;55.60;;;;;;4923015;29;20534;-96
2023/03/07 03:09:21;;;;;;;1.60;1.30;;;20.70;55.60;;;;;;4921665;29;20455;-96
2023/03/07 03:11:48;;;;;;;1.60;1.40;;;20.70;55.60;;;;;;4922607;29;20483;-96
2023/03/07 03:14:15;;;;;;;1.70;1.60;;;20.70;55.50;;;;;;4921594;29;20553;-96
2023/03/07 03:16:42;;;;;;;1.73;1.63;;;20.70;55.50;;;;;;4921891;29;20513;-96
2023/03/07 03:19:11;;;;;;;1.77;1.67;;;20.70;55.50;;;;;;4921696;29;20958;-96
2023/03/07 03:21:38;;;;;;;1.90;1.80;;;20.70;55.50;;;;;;4921763;29;20866;-96
2023/03/07 03:24:06;;;;;;;2.10;1.70;;;20.80;55.60;;;;;;4922142;29;20530;-96
2023/03/07 03:26:34;;;;;;;1.90;1.80;;;20.60;55.40;;;;;;4922369;29;20460;-96
2023/03/07 03:29:01;;;;;;;1.53;1.43;;;20.70;55.50;;;;;;4921318;29;20444;-95
2023/03/07 03:31:29;;;;;;;1.83;1.60;;;20.60;55.40;;;;;;4922482;29;20451;-96
2023/03/07 03:33:57;;;;;;;1.60;1.50;;;20.60;55.30;;;;;;4921270;29;20489;-96
2023/03/07 03:36:27;;;;;;;1.73;1.63;;;20.70;55.40;;;;;;4921466;29;20463;-96
2023/03/07 03:38:55;;;;;;;1.57;1.47;;;20.70;55.40;;;;;;4921522;29;20460;-96
2023/03/07 03:41:23;;;;;;;1.70;1.60;;;20.60;55.40;;;;;;4921502;29;21008;-96
2023/03/07 03:43:50;;;;;;;1.77;1.50;;;20.60;55.30;;;;;;4920762;29;20549;-96
2023/03/07 03:46:18;;;;;;;1.70;1.60;;;20.70;55.40;;;;;;4920963;29;20479;-96
2023/03/07 03:48:45;;;;;;;1.50;1.40;;;20.60;55.30;;;;;;4921566;29;20455;-96
2023/03/07 03:51:14;;;;;;;1.60;1.50;;;20.60;55.30;;;;;;4921077;29;20447;-96
2023/03/07 03:53:42;;;;;;;1.50;1.40;;;20.60;55.30;;;;;;4921273;29;20551;-96
2023/03/07 03:56:11;;;;;;;1.40;1.27;;;20.60;55.30;;;;;;4921577;29;20546;-96
2023/03/07 03:58:39;;;;;;;1.50;1.40;;;20.60;55.30;;;;;;4921517;29;20940;-96
2023/03/07 04:01:08;;;;;;;1.70;1.60;;;20.60;55.30;;;;;;4921186;29;20517;-96
2023/03/07 04:03:37;;;;;;;1.47;1.37;;;20.60;55.20;;;;;;4921234;29;20516;-95
2023/03/07 04:06:06;;;;;;;1.50;1.40;;;20.60;55.30;;;;;;4921847;29;20487;-95
2023/03/07 04:08:34;;;;;;;1.73;1.63;;;20.60;55.20;;;;;;4921556;29;20482;-96
2023/03/07 04:11:03;;;;;;;2.90;1.30;;;20.60;55.20;;;;;;4921464;29;20459;-96
2023/03/07 04:13:31;;;;;;;1.57;1.47;;;20.60;55.20;;;;;;4920430;29;20448;-96
2023/03/07 04:16:01;;;;;;;1.37;1.27;;;20.60;55.20;;;;;;4920659;29;20531;-96
2023/03/07 04:18:28;;;;;;;1.77;1.67;;;20.60;55.10;;;;;;4920355;29;20456;-96
2023/03/07 04:20:56;;;;;;;2.07;1.60;;;20.60;55.10;;;;;;4920500;29;20542;-96
2023/03/07 04:23:25;;;;;;;1.70;1.60;;;20.60;55.10;;;;;;4904060;29;20487;-96
2023/03/07 04:25:55;;;;;;;1.30;1.20;;;20.60;55.10;;;;;;4922040;29;20452;-96
2023/03/07 04:28:26;;;;;;;1.50;1.40;;;20.60;55.10;;;;;;4921119;29;20451;-96
2023/03/07 04:30:55;;;;;;;1.60;1.50;;;20.60;55.10;;;;;;4920877;29;20954;-95
2023/03/07 04:33:26;;;;;;;1.10;1.00;;;20.60;55.20;;;;;;4920381;29;20886;-96
2023/03/07 04:35:53;;;;;;;4.60;1.57;;;20.60;55.70;;;;;;4920362;29;20548;-96
2023/03/07 04:38:20;;;;;;;1.50;1.40;;;20.60;55.10;;;;;;4919987;29;20886;-96
2023/03/07 04:40:47;;;;;;;1.30;1.20;;;20.60;55.10;;;;;;4919499;29;20455;-96
2023/03/07 04:43:14;;;;;;;1.40;1.30;;;20.60;55.10;;;;;;4921274;29;20531;-96
2023/03/07 04:45:43;;;;;;;1.40;1.20;;;20.60;55.10;;;;;;4922030;29;20499;-96
2023/03/07 04:48:10;;;;;;;1.20;1.10;;;20.60;55.00;;;;;;4919462;29;20546;-96
2023/03/07 04:50:37;;;;;;;1.40;1.27;;;20.60;55.10;;;;;;4920046;29;20487;-96
2023/03/07 04:53:05;;;;;;;1.30;1.20;;;20.50;55.00;;;;;;4919664;29;20487;-96
2023/03/07 04:55:32;;;;;;;1.37;1.27;;;20.50;55.00;;;;;;4921369;29;20507;-96
2023/03/07 04:57:59;;;;;;;1.23;1.13;;;20.60;55.10;;;;;;4920326;29;20539;-96
2023/03/07 05:00:26;;;;;;;1.30;1.20;;;20.50;55.00;;;;;;4921147;29;20568;-96
2023/03/07 05:03:00;;;;;;;1.20;1.10;;;20.50;55.00;;;;;;4919973;29;20488;-95
2023/03/07 05:05:28;;;;;;;1.50;1.40;;;20.50;55.00;;;;;;4919780;29;21000;-96
2023/03/07 05:07:55;;;;;;;1.53;1.43;;;20.50;55.00;;;;;;4920258;29;20452;-95
2023/03/07 05:10:22;;;;;;;1.40;1.30;;;20.50;54.90;;;;;;4920257;29;20447;-96
2023/03/07 05:12:50;;;;;;;1.30;1.20;;;20.50;54.90;;;;;;4920025;29;20491;-96
2023/03/07 05:15:17;;;;;;;2.10;1.50;;;20.60;55.00;;;;;;4920389;29;20508;-96
2023/03/07 05:17:45;;;;;;;1.50;1.40;;;20.50;54.90;;;;;;4919759;29;20472;-96
2023/03/07 05:20:14;;;;;;;1.53;1.30;;;20.50;54.90;;;;;;4920247;29;20456;-95
2023/03/07 05:22:42;;;;;;;1.60;1.50;;;20.50;54.90;;;;;;4920155;29;20460;-96
2023/03/07 05:25:09;;;;;;;1.30;1.20;;;20.50;54.90;;;;;;4919922;29;20542;-95
2023/03/07 05:27:36;;;;;;;1.30;1.20;;;20.50;54.90;;;;;;4924499;29;20448;-96
2023/03/07 05:30:04;;;;;;;1.50;1.13;;;20.50;54.90;;;;;;4926611;29;20456;-96
2023/03/07 05:32:36;;;;;;;1.30;1.20;;;20.50;54.90;;;;;;4928325;29;21022;-96
2023/03/07 05:35:03;;;;;;;1.70;1.20;;;20.50;54.90;;;;;;4925991;29;20447;-96
2023/03/07 05:37:32;;;;;;;1.40;1.20;;;20.50;54.80;;;;;;4925809;29;20452;-96
2023/03/07 05:39:59;;;;;;;1.30;1.20;;;20.50;54.80;;;;;;4923380;29;20459;-96
2023/03/07 05:42:26;;;;;;;1.30;1.10;;;20.50;54.80;;;;;;4930261;29;20455;-96
2023/03/07 05:48:15;;;;;;;1.33;1.23;;;20.50;54.80;;;;;;4923381;29;20407;-96
2023/03/07 05:50:42;;;;;;;3.10;1.30;;;20.40;54.80;;;;;;4922984;29;20539;-96
2023/03/07 05:53:11;;;;;;;1.30;1.20;;;20.40;54.80;;;;;;4921051;29;20455;-95
2023/03/07 05:55:37;;;;;;;1.50;1.40;;;20.50;54.80;;;;;;4920595;29;20939;-95
2023/03/07 05:58:05;;;;;;;1.33;1.23;;;20.50;54.80;;;;;;4920511;29;20482;-96
2023/03/07 06:00:32;;;;;;;1.33;1.23;;;20.50;54.80;;;;;;4920777;29;20455;-96
2023/03/07 06:03:01;;;;;;;1.40;1.30;;;20.50;54.80;;;;;;4921583;29;20476;-96
2023/03/07 06:05:29;;;;;;;1.63;1.30;;;20.50;54.70;;;;;;4922007;29;20935;-96
2023/03/07 06:07:56;;;;;;;2.00;1.30;;;20.50;54.70;;;;;;4925530;29;20514;-96
2023/03/07 06:10:25;;;;;;;1.50;1.40;;;20.50;54.80;;;;;;4927733;29;20461;-95
2023/03/07 06:12:53;;;;;;;1.37;1.27;;;20.50;55.50;;;;;;4923728;29;20456;-92
2023/03/07 06:15:20;;;;;;;1.43;1.33;;;20.50;54.90;;;;;;4931593;29;20518;-92
2023/03/07 06:17:47;;;;;;;1.70;1.30;;;20.60;55.00;;;;;;4938181;29;20458;-88
2023/03/07 06:20:14;;;;;;;1.50;1.30;;;20.40;54.80;;;;;;4926787;29;20554;-88
2023/03/07 06:22:41;;;;;;;1.40;1.30;;;20.60;55.00;;;;;;4909171;29;20444;-92
2023/03/07 06:25:09;;;;;;;1.83;1.20;;;20.40;54.80;;;;;;4910351;29;20520;-92
2023/03/07 06:27:39;;;;;;;1.53;1.43;;;20.40;54.80;;;;;;4902123;29;20542;-90
2023/03/07 06:30:08;;;;;;;1.70;1.53;;;20.40;54.80;;;;;;4903783;29;20464;-89
2023/03/07 06:32:35;;;;;;;1.30;1.20;;;20.40;54.80;;;;;;4909540;29;20479;-93
2023/03/07 06:35:05;;;;;;;2.47;1.60;;;20.40;54.80;;;;;;4914051;29;20460;-92
2023/03/07 06:37:32;;;;;;;1.60;1.50;;;20.40;54.80;;;;;;4918467;29;20452;-93
2023/03/07 06:40:08;;;;;;;1.20;1.10;;;20.40;54.80;;;;;;4926727;29;20444;-93
2023/03/07 06:42:35;;;;;;;1.30;1.20;;;20.40;54.80;;;;;;4939284;29;20449;-91
2023/03/07 06:45:04;;;;;;;2.03;1.40;;;20.40;54.80;;;;;;4923539;29;20534;-91
2023/03/07 06:47:31;;;;;;;1.47;1.37;;;20.40;54.80;;;;;;4910941;29;20465;-89
2023/03/07 06:49:58;;;;;;;1.57;1.20;;;20.40;54.80;;;;;;4913300;29;20464;-91
2023/03/07 06:52:25;;;;;;;1.60;1.50;;;20.40;54.90;;;;;;4912891;29;20532;-92
2023/03/07 06:54:52;;;;;;;1.30;1.20;;;20.40;54.70;;;;;;4916310;29;20495;-91
2023/03/07 06:57:18;;;;;;;1.40;1.30;;;20.40;54.80;;;;;;4913434;29;20448;-91
2023/03/07 06:59:45;;;;;;;1.60;1.50;;;20.40;54.70;;;;;;4910628;29;20451;-91
2023/03/07 07:02:14;;;;;;;2.07;1.70;;;20.40;54.70;;;;;;4925640;29;20517;-92
2023/03/07 07:04:41;;;;;;;4.93;1.80;;;20.60;54.70;;;;;;4938952;29;20514;-92
2023/03/07 07:07:08;;;;;;;1.60;1.50;;;20.40;54.60;;;;;;4920140;29;20936;-91
2023/03/07 07:09:35;;;;;;;6.33;1.70;;;20.40;54.70;;;;;;4927911;29;20454;-92
2023/03/07 07:12:03;;;;;;;1.30;1.20;;;20.40;55.30;;;;;;4930937;29;20464;-92
2023/03/07 07:14:31;;;;;;;1.80;1.47;;;20.40;54.70;;;;;;4933704;29;20475;-91
2023/03/07 07:16:58;;;;;;;1.47;1.37;;;20.40;54.70;;;;;;4935439;29;20467;-93
2023/03/07 07:19:26;;;;;;;1.53;1.43;;;20.40;54.70;;;;;;4938108;29;20528;-91
2023/03/07 07:21:54;;;;;;;1.40;1.30;;;20.40;54.80;;;;;;4934636;29;20456;-92
2023/03/07 07:24:20;;;;;;;1.53;1.43;;;20.40;54.70;;;;;;4936742;29;20479;-92
2023/03/07 07:26:47;;;;;;;1.50;1.40;;;20.40;54.70;;;;;;4938677;29;20471;-91
2023/03/07 07:29:14;;;;;;;1.53;1.43;;;20.50;54.80;;;;;;4918950;29;20472;-91
2023/03/07 07:31:41;;;;;;;4.30;1.77;;;20.40;54.70;;;;;;4918646;29;20467;-91
2023/03/07 07:34:08;;;;;;;1.80;1.70;;;20.40;54.70;;;;;;4932786;29;20507;-92
2023/03/07 07:36:36;;;;;;;1.63;1.53;;;20.40;54.70;;;;;;4934188;29;20857;-93
2023/03/07 07:39:04;;;;;;;1.73;1.57;;;20.40;54.70;;;;;;4932250;29;20463;-92
2023/03/07 07:41:31;;;;;;;2.40;1.40;;;20.40;54.70;;;;;;4929043;29;20429;-91
2023/03/07 07:43:59;;;;;;;1.47;1.37;;;20.50;54.90;;;;;;4898083;29;20484;-91
2023/03/07 07:46:27;;;;;;;1.77;1.67;;;20.40;54.90;;;;;;4908566;29;20477;-90
2023/03/07 07:48:54;;;;;;;4.30;1.70;;;20.40;54.90;;;;;;4905882;29;20508;-90
2023/03/07 07:51:21;;;;;;;2.60;1.43;;;20.40;54.90;;;;;;4905931;29;20458;-91
2023/03/07 07:53:50;;;;;;;1.47;1.37;;;20.40;54.90;;;;;;4904932;29;20440;-91
2023/03/07 07:56:16;;;;;;;1.60;1.50;;;20.40;54.90;;;;;;4924181;29;20425;-91
2023/03/07 07:58:43;;;;;;;1.80;1.70;;;20.50;55.10;;;;;;4924907;29;20428;-92
2023/03/07 08:01:15;;;;;;;1.57;1.40;;;20.30;54.90;;;;;;4924658;29;20468;-90
2023/03/07 08:03:42;;;;;;;4.10;1.60;;;20.30;54.90;;;;;;4924432;29;20544;-90
2023/03/07 08:06:09;;;;;;;1.60;1.30;;;20.30;54.90;;;;;;4924483;29;20595;-91
2023/03/07 08:08:35;;;;;;;1.77;1.40;;;20.30;54.90;;;;;;4924604;29;20500;-91
2023/03/07 08:11:05;;;;;;;1.30;1.20;;;20.30;54.90;;;;;;4924189;29;20471;-91
2023/03/07 08:13:32;;;;;;;1.77;1.67;;;20.30;54.90;;;;;;4924443;29;20534;-90
2023/03/07 08:15:59;;;;;;;3.90;1.33;;;20.30;54.90;;;;;;4924479;29;20468;-89
2023/03/07 08:18:25;;;;;;;1.47;1.30;;;20.30;54.90;;;;;;4924618;29;20443;-90
2023/03/07 08:20:52;;;;;;;4.00;1.60;;;20.30;55.00;;;;;;4924416;29;20445;-90
2023/03/07 08:23:19;;;;;;;1.53;1.43;;;20.30;54.90;;;;;;4924365;29;20460;-90
2023/03/07 08:25:46;;;;;;;1.90;1.53;;;20.30;54.90;;;;;;4924420;29;20464;-91
2023/03/07 08:28:14;;;;;;;2.33;1.73;;;20.30;54.90;;;;;;4924446;29;20428;-91
2023/03/07 08:30:40;;;;;;;1.97;1.40;;;20.30;54.90;;;;;;4924284;29;20464;-93
2023/03/07 08:33:08;;;;;;;1.50;1.27;;;20.30;54.90;;;;;;4924279;29;20463;-89
2023/03/07 08:35:38;;;;;;;3.47;1.53;;;20.40;55.00;;;;;;4924548;29;20504;-91
2023/03/07 08:38:06;;;;;;;1.93;1.43;;;20.30;54.90;;;;;;4924209;29;20436;-91
2023/03/07 08:40:35;;;;;;;4.10;1.50;;;20.30;54.90;;;;;;4912536;29;20503;-92
2023/03/07 08:43:02;;;;;;;1.80;1.30;;;20.30;54.90;;;;;;4905914;29;20444;-94
2023/03/07 08:45:31;;;;;;;1.63;1.53;;;20.20;54.80;;;;;;4903015;29;20515;-91
2023/03/07 08:47:58;;;;;;;1.40;1.30;;;20.30;54.90;;;;;;4901290;29;20488;-91
2023/03/07 08:50:28;;;;;;;1.37;1.10;;;20.20;54.80;;;;;;4900774;29;20528;-92
2023/03/07 08:52:56;;;;;;;1.43;1.33;;;20.20;54.80;;;;;;4905407;29;20449;-90
2023/03/07 08:55:24;;;;;;;1.40;1.20;;;20.20;54.80;;;;;;4906152;29;20448;-91
2023/03/07 08:57:52;;;;;;;1.87;1.40;;;20.20;54.80;;;;;;4905937;29;20436;-91
2023/03/07 09:00:23;;;;;;;1.87;1.53;;;20.20;54.80;;;;;;4906588;29;20463;-91
2023/03/07 09:03:00;;;;;;;1.43;1.33;;;20.20;54.70;;;;;;4906139;29;20437;-91
2023/03/07 09:05:27;;;;;;;1.40;1.30;;;20.20;54.70;;;;;;4906089;29;20834;-91
2023/03/07 09:07:55;;;;;;;1.67;1.40;;;20.20;54.80;;;;;;4904837;29;20484;-94
2023/03/07 09:10:26;;;;;;;1.53;1.43;;;20.30;54.80;;;;;;4902185;29;21013;-91
2023/03/07 09:12:54;;;;;;;1.50;1.40;;;20.20;54.80;;;;;;4905173;29;20445;-91
2023/03/07 09:15:21;;;;;;;1.50;1.40;;;20.20;54.70;;;;;;4904884;29;20532;-90
2023/03/07 09:17:51;;;;;;;1.50;1.40;;;20.30;54.80;;;;;;4904941;29;20453;-93
2023/03/07 09:20:27;;;;;;;1.30;1.17;;;20.20;54.70;;;;;;4904861;29;20543;-91
2023/03/07 09:22:55;;;;;;;1.63;1.53;;;20.20;54.80;;;;;;4906356;29;20448;-92
2023/03/07 09:25:23;;;;;;;1.63;1.40;;;20.20;54.70;;;;;;4905444;29;20496;-91
2023/03/07 09:27:50;;;;;;;1.73;1.50;;;20.20;54.70;;;;;;4905365;29;20453;-90
2023/03/07 09:30:17;;;;;;;1.20;1.10;;;20.20;54.70;;;;;;4902904;29;20447;-94
2023/03/07 09:32:44;;;;;;;2.20;1.17;;;20.20;54.70;;;;;;4904552;29;20458;-91
2023/03/07 09:35:11;;;;;;;2.60;1.37;;;20.20;54.70;;;;;;4923096;29;20447;-91
2023/03/07 09:37:40;;;;;;;1.50;1.40;;;20.20;54.70;;;;;;4917048;29;20449;-92
2023/03/07 09:40:10;;;;;;;1.37;1.27;;;20.20;54.70;;;;;;4899429;29;20467;-90
2023/03/07 09:42:46;;;;;;;1.47;1.37;;;20.20;54.60;;;;;;4900373;29;20458;-84
2023/03/07 09:45:23;;;;;;;1.53;1.43;;;20.20;54.10;;;;;;4901069;29;20492;-84
2023/03/07 09:48:19;;;;;;;1.53;1.30;;;20.10;54.00;;;;;;4899391;29;20467;-87
2023/03/07 09:50:52;;;;;;;5.33;2.13;;;20.10;54.10;;;;;;4868655;29;20475;-92
2023/03/07 09:53:30;;;;;;;1.67;1.57;;;20.10;54.00;;;;;;4898969;29;20445;-89
2023/03/07 09:56:01;;;;;;;1.60;1.50;;;20.10;54.20;;;;;;4898672;29;20452;-89
2023/03/07 09:58:29;;;;;;;1.30;1.20;;;20.30;54.70;;;;;;4899140;29;20437;-89
2023/03/07 10:00:59;;;;;;;1.50;1.13;;;20.10;54.50;;;;;;4898619;29;20449;-89
2023/03/07 10:03:33;;;;;;;1.47;1.37;;;20.10;54.50;;;;;;4900230;29;20508;-89
2023/03/07 10:06:05;;;;;;;1.47;1.37;;;20.10;54.70;;;;;;4898876;29;21065;-91
2023/03/07 10:08:33;;;;;;;1.27;1.17;;;20.10;54.50;;;;;;4899833;29;20467;-89
2023/03/07 10:11:13;;;;;;;1.50;1.13;;;20.10;54.50;;;;;;4907400;29;20458;-91
2023/03/07 10:13:53;;;;;;;1.40;1.23;;;20.10;54.60;;;;;;4905900;29;20448;-90
2023/03/07 10:16:30;;;;;;;1.70;1.40;;;20.10;54.60;;;;;;4909535;29;20479;-89
2023/03/07 10:19:17;;;;;;;1.57;1.47;;;20.10;54.60;;;;;;4911801;29;20455;-89
2023/03/07 10:21:52;;;;;;;1.37;1.20;;;20.10;54.50;;;;;;4911703;29;20452;-91
2023/03/07 10:37:49;;;;;;;1.37;1.27;;;20.30;54.70;;;;;;4943016;27;5640623;-90
2023/03/07 10:40:28;;;;;;;1.63;1.30;;;20.20;54.60;;;;;;5119166;28;20535;-91
2023/03/07 10:42:56;;;;;;;3.43;1.33;;;20.10;54.50;;;;;;5117574;28;20434;-89
2023/03/07 10:45:23;;;;;;;4.20;1.07;;;20.10;54.70;;;;;;5101215;28;20483;-90
2023/03/07 10:47:50;;;;;;;1.30;1.20;;;20.10;54.60;;;;;;5091221;28;20443;-90
2023/03/07 10:50:28;;;;;;;1.20;1.10;;;20.10;54.60;;;;;;5091709;28;20931;-90
2023/03/07 10:52:58;;;;;;;1.33;1.20;;;20.10;54.60;;;;;;5093204;28;20443;-90
2023/03/07 10:58:21;;;;;;;1.47;1.37;;;20.10;54.50;;;;;;5547633;23;20496;-92
2023/03/07 11:01:14;;;;;;;1.20;1.00;;;20.10;54.50;;;;;;5295021;23;20832;-90
2023/03/07 11:06:34;;;;;;;2.00;1.80;;;20.10;54.50;;;;;;5071272;28;20476;-90
2023/03/07 11:11:40;;;;;;;1.40;1.30;;;20.10;54.50;;;;;;5008371;26;20494;-90
2023/03/07 11:14:09;;;;;;;1.90;1.30;;;20.10;54.40;;;;;;5273750;23;20486;-90
2023/03/07 11:16:50;;;;;;;2.03;1.30;;;20.10;54.50;;;;;;5038882;28;20431;-90
2023/03/07 11:19:30;;;;;;;1.20;1.10;;;20.10;54.50;;;;;;5036486;28;20849;-91
2023/03/07 11:22:02;;;;;;;1.50;1.10;;;20.10;54.40;;;;;;5034587;28;20449;-90
2023/03/07 11:24:33;;;;;;;2.37;1.30;;;20.10;54.50;;;;;;5034346;28;20824;-91
2023/03/07 11:27:01;;;;;;;3.37;1.27;;;20.20;54.50;;;;;;5034681;28;20529;-90
2023/03/07 11:29:32;;;;;;;1.50;1.20;;;20.10;54.40;;;;;;5032926;28;20446;-90
2023/03/07 11:32:12;;;;;;;1.43;1.33;;;20.10;54.40;;;;;;5034759;28;20454;-92
2023/03/07 11:34:47;;;;;;;1.60;1.17;;;20.10;54.50;;;;;;5034364;28;20433;-90
2023/03/07 11:37:37;;;;;;;1.57;1.40;;;20.10;54.40;;;;;;5027688;28;20810;-93
2023/03/07 11:40:22;;;;;;;2.43;1.20;;;20.10;54.40;;;;;;5000791;28;20444;-90
2023/03/07 11:43:01;;;;;;;1.27;1.17;;;20.10;53.90;;;;;;5001946;28;20439;-91
2023/03/07 11:45:39;;;;;;;1.60;1.43;;;20.10;54.00;;;;;;5007996;28;20917;-90
2023/03/07 11:48:20;;;;;;;2.33;1.30;;;20.10;54.20;;;;;;5030520;28;20442;-89
2023/03/07 11:50:54;;;;;;;1.60;1.40;;;20.10;54.20;;;;;;5027566;28;20785;-89
2023/03/07 11:53:44;;;;;;;1.87;1.17;;;20.10;54.20;;;;;;5038213;28;20454;-90
2023/03/07 11:56:25;;;;;;;1.83;1.27;;;20.30;54.50;;;;;;5014416;28;20485;-91
2023/03/07 11:59:16;;;;;;;1.63;1.53;;;20.10;54.20;;;;;;5029366;28;20454;-89
2023/03/07 12:01:53;;;;;;;2.73;1.57;;;20.10;54.20;;;;;;4999337;28;20444;-90
2023/03/07 12:04:41;;;;;;;1.63;1.43;;;20.10;54.20;;;;;;5000327;28;20526;-89
2023/03/07 12:07:23;;;;;;;1.43;1.30;;;20.10;54.20;;;;;;5002320;28;20579;-92
2023/03/07 12:09:57;;;;;;;2.40;1.20;;;20.20;54.40;;;;;;5024001;28;20442;-89
2023/03/07 12:12:47;;;;;;;4.70;1.53;;;20.10;54.20;;;;;;5040179;28;20494;-89
2023/03/07 12:15:28;;;;;;;2.67;1.60;;;20.10;54.30;;;;;;5016174;28;20570;-90
2023/03/07 12:18:09;;;;;;;3.90;1.47;;;20.10;54.50;;;;;;5016711;28;20446;-90
2023/03/07 12:20:44;;;;;;;1.60;1.50;;;20.10;54.40;;;;;;5016607;28;20443;-89
2023/03/07 12:23:17;;;;;;;1.53;1.33;;;20.20;54.50;;;;;;5016270;28;20485;-90
2023/03/07 12:25:49;;;;;;;2.13;1.70;;;20.10;54.40;;;;;;5016257;28;20487;-90
2023/03/07 12:28:22;;;;;;;2.63;1.20;;;20.10;54.40;;;;;;5015893;28;20806;-90
2023/03/07 12:30:59;;;;;;;1.50;1.10;;;20.10;54.60;;;;;;5016229;28;20444;-90
2023/03/07 12:33:37;;;;;;;1.40;1.17;;;20.20;54.50;;;;;;5016354;28;20445;-90
2023/03/07 12:36:09;;;;;;;2.77;1.57;;;20.10;54.50;;;;;;5016145;28;20451;-90
2023/03/07 12:38:41;;;;;;;2.27;1.57;;;20.10;54.50;;;;;;5016266;28;20455;-90
2023/03/07 12:41:25;;;;;;;1.83;1.20;;;20.10;54.50;;;;;;5016131;28;20436;-90
2023/03/07 12:43:57;;;;;;;3.87;2.07;;;20.10;54.40;;;;;;5018738;28;20467;-89
2023/03/07 12:46:36;;;;;;;2.07;1.27;;;20.10;54.50;;;;;;5017318;28;20583;-90
2023/03/07 12:49:14;;;;;;;1.53;1.43;;;20.20;54.60;;;;;;5016020;28;20860;-90
2023/03/07 12:51:49;;;;;;;1.60;1.33;;;20.10;54.50;;;;;;5024268;23;20952;-89
2023/03/07 12:57:03;;;;;;;2.07;1.60;;;20.10;54.40;;;;;;5003313;28;20507;-89
2023/03/07 13:02:14;;;;;;;2.20;1.30;;;20.10;54.50;;;;;;5086762;23;20504;-90
2023/03/07 13:04:43;;;;;;;2.47;1.40;;;20.10;54.50;;;;;;5067159;28;20174;-90
2023/03/07 13:07:18;;;;;;;1.60;1.33;;;20.10;54.50;;;;;;5070897;28;20891;-90
2023/03/07 13:09:47;;;;;;;5.10;1.70;;;20.10;54.50;;;;;;5048037;23;20555;-90
2023/03/07 13:12:39;;;;;;;5.03;1.73;;;20.20;54.60;;;;;;5022875;28;20447;-90
2023/03/07 13:15:27;;;;;;;1.43;1.33;;;20.10;54.50;;;;;;5018401;28;20463;-89
2023/03/07 13:18:26;;;;;;;2.83;1.60;;;20.00;54.40;;;;;;5020685;28;20447;-90
2023/03/07 13:21:29;;;;;;;2.43;1.20;;;20.20;54.50;;;;;;5018473;28;20450;-90
2023/03/07 13:24:33;;;;;;;2.70;1.50;;;20.00;54.50;;;;;;5015437;28;20443;-90
2023/03/07 13:27:01;;;;;;;1.60;1.30;;;20.00;54.40;;;;;;5015032;28;20508;-90
2023/03/07 13:30:04;;;;;;;3.30;1.97;;;20.00;54.50;;;;;;5014634;28;20443;-90
2023/03/07 13:32:58;;;;;;;2.23;1.30;;;20.00;54.40;;;;;;5015345;28;20810;-90
2023/03/07 13:35:56;;;;;;;2.97;1.57;;;20.00;54.40;;;;;;5015299;28;20812;-90
2023/03/07 13:38:32;;;;;;;1.60;1.37;;;20.00;54.40;;;;;;5014751;28;20455;-90
2023/03/07 13:41:00;;;;;;;2.17;1.23;;;20.00;54.40;;;;;;5014703;28;20436;-90